createdAt,value
2017-06-12T00:02:07.877Z,2.73
2017-06-12T00:04:36.240Z,3.10
2017-06-12T00:07:03.844Z,3.83
2017-06-12T00:09:31.430Z,3.03
2017-06-12T00:11:59.003Z,2.70
2017-06-12T00:14:26.591Z,4.50
2017-06-12T00:16:54.184Z,2.60
2017-06-12T00:19:21.766Z,2.97
2017-06-12T00:21:49.342Z,3.97
2017-06-12T00:24:16.902Z,3.03
2017-06-12T00:26:44.493Z,3.50
2017-06-12T00:29:12.838Z,3.30
2017-06-12T00:31:40.485Z,3.67
2017-06-12T00:34:08.059Z,2.77
2017-06-12T00:36:35.633Z,2.73
2017-06-12T00:39:03.250Z,2.40
2017-06-12T00:41:30.827Z,4.70
2017-06-12T00:43:58.415Z,2.60
2017-06-12T00:46:25.982Z,2.73
2017-06-12T00:48:54.353Z,2.60
2017-06-12T00:51:22.691Z,3.00
2017-06-12T00:53:50.266Z,2.30
2017-06-12T00:56:17.846Z,3.13
2017-06-12T00:58:46.201Z,3.27
2017-06-12T01:01:13.791Z,2.23
2017-06-12T01:03:42.136Z,2.80
2017-06-12T01:06:09.751Z,2.27
2017-06-12T01:08:37.319Z,2.50
2017-06-12T01:11:04.873Z,2.87
2017-06-12T01:13:32.481Z,2.00
2017-06-12T01:16:00.062Z,3.20
2017-06-12T01:18:27.665Z,2.50
2017-06-12T01:20:55.236Z,2.47
2017-06-12T01:23:23.135Z,3.33
2017-06-12T01:25:50.705Z,2.57
2017-06-12T01:28:19.047Z,2.20
2017-06-12T01:30:46.627Z,4.00
2017-06-12T01:33:14.197Z,2.03
2017-06-12T01:35:41.805Z,2.53
2017-06-12T01:38:09.380Z,2.53
2017-06-12T01:40:36.985Z,2.50
2017-06-12T01:43:05.344Z,2.80
2017-06-12T01:45:32.916Z,2.63
2017-06-12T01:48:00.510Z,3.00
2017-06-12T01:50:28.081Z,3.03
2017-06-12T01:52:55.659Z,2.43
2017-06-12T01:55:23.223Z,3.53
2017-06-12T01:57:50.782Z,2.40
2017-06-12T02:00:18.369Z,2.60
2017-06-12T02:02:46.704Z,2.60
2017-06-12T02:05:14.279Z,3.33
2017-06-12T02:07:41.849Z,2.60
2017-06-12T02:10:09.440Z,3.17
2017-06-12T02:12:37.004Z,2.60
2017-06-12T02:15:04.570Z,2.40
2017-06-12T02:17:32.182Z,4.53
2017-06-12T02:19:59.745Z,3.17
2017-06-12T02:22:27.321Z,2.63
2017-06-12T02:24:55.653Z,3.10
2017-06-12T02:27:23.281Z,2.63
2017-06-12T02:29:50.859Z,3.07
2017-06-12T02:32:18.430Z,2.70
2017-06-12T02:34:46.037Z,2.73
2017-06-12T02:37:14.375Z,2.97
2017-06-12T02:39:41.960Z,2.17
2017-06-12T02:42:09.555Z,2.77
2017-06-12T02:44:37.151Z,2.67
2017-06-12T02:47:04.778Z,4.20
2017-06-12T02:49:32.350Z,3.30
2017-06-12T02:51:59.927Z,2.93
2017-06-12T02:54:27.498Z,2.97
2017-06-12T02:56:55.082Z,2.60
2017-06-12T02:59:22.669Z,3.23
2017-06-12T03:01:50.289Z,2.73
2017-06-12T03:04:17.859Z,2.90
2017-06-12T03:06:46.182Z,2.93
2017-06-12T03:09:13.775Z,3.50
2017-06-12T03:11:41.344Z,2.90
2017-06-12T03:14:08.926Z,3.30
2017-06-12T03:16:36.495Z,3.20
2017-06-12T03:19:04.252Z,2.50
2017-06-12T03:21:31.840Z,2.67
2017-06-12T03:23:59.408Z,2.57
2017-06-12T03:26:26.995Z,2.30
2017-06-12T03:28:54.563Z,4.03
2017-06-12T03:31:22.911Z,3.90
2017-06-12T03:33:50.468Z,3.67
2017-06-12T03:36:18.078Z,2.83
2017-06-12T03:38:45.645Z,2.77
2017-06-12T03:41:13.214Z,2.50
2017-06-12T03:43:40.814Z,2.70
2017-06-12T03:46:08.376Z,2.83
2017-06-12T03:48:35.935Z,2.97
2017-06-12T03:51:03.544Z,3.10
2017-06-12T03:53:31.156Z,2.90
2017-06-12T03:55:58.727Z,2.77
2017-06-12T03:58:26.308Z,4.20
2017-06-12T04:00:54.656Z,4.03
2017-06-12T04:03:22.230Z,3.27
2017-06-12T04:05:50.567Z,2.43
2017-06-12T04:08:18.126Z,2.83
2017-06-12T04:10:45.735Z,4.10
2017-06-12T04:13:14.072Z,2.70
2017-06-12T04:15:41.645Z,2.60
2017-06-12T04:18:09.228Z,2.90
2017-06-12T04:20:36.800Z,2.60
2017-06-12T04:23:04.380Z,5.90
2017-06-12T04:25:31.962Z,4.60
2017-06-12T04:27:59.523Z,2.57
2017-06-12T04:30:27.098Z,2.70
2017-06-12T04:32:54.677Z,3.40
2017-06-12T04:35:22.266Z,2.60
2017-06-12T04:37:49.836Z,2.70
2017-06-12T04:40:17.437Z,2.70
2017-06-12T04:42:44.998Z,2.97
2017-06-12T04:45:12.561Z,5.80
2017-06-12T04:47:40.132Z,4.80
2017-06-12T04:50:07.721Z,3.30
2017-06-12T04:52:35.314Z,2.77
2017-06-12T04:55:02.913Z,2.70
2017-06-12T04:57:30.504Z,3.00
2017-06-12T04:59:58.087Z,2.90
2017-06-12T05:02:25.672Z,5.50
2017-06-12T05:04:53.282Z,3.20
2017-06-12T05:07:20.851Z,3.23
2017-06-12T05:09:48.440Z,4.87
2017-06-12T05:12:16.014Z,3.40
2017-06-12T05:14:43.605Z,3.50
2017-06-12T05:17:11.170Z,3.83
2017-06-12T05:22:05.316Z,3.20
2017-06-12T05:24:32.898Z,5.73
2017-06-12T05:27:01.244Z,3.03
2017-06-12T05:29:28.834Z,3.47
2017-06-12T05:31:56.425Z,3.30
2017-06-12T05:34:23.977Z,3.57
2017-06-12T05:36:51.540Z,3.67
2017-06-12T05:39:19.118Z,5.50
2017-06-12T05:41:46.686Z,3.60
2017-06-12T05:44:14.271Z,3.90
2017-06-12T05:46:41.831Z,4.07
2017-06-12T05:49:10.195Z,5.13
2017-06-12T05:51:38.548Z,7.33
2017-06-12T05:54:06.104Z,5.63
2017-06-12T05:56:33.691Z,3.60
2017-06-12T05:59:01.278Z,3.33
2017-06-12T06:01:28.884Z,4.00
2017-06-12T06:03:56.479Z,3.93
2017-06-12T06:06:24.072Z,3.37
2017-06-12T06:08:51.657Z,3.87
2017-06-12T06:11:19.233Z,3.53
2017-06-12T06:13:46.811Z,3.70
2017-06-12T06:16:14.394Z,4.20
2017-06-12T06:18:42.730Z,4.10
2017-06-12T06:21:10.286Z,3.73
2017-06-12T06:23:37.894Z,4.30
2017-06-12T06:26:05.478Z,3.33
2017-06-12T06:28:33.043Z,3.90
2017-06-12T06:31:00.647Z,4.03
2017-06-12T06:33:28.221Z,3.50
2017-06-12T06:35:56.592Z,5.27
2017-06-12T06:38:24.916Z,3.30
2017-06-12T06:40:52.521Z,3.80
2017-06-12T06:43:20.882Z,5.07
2017-06-12T06:45:48.496Z,4.83
2017-06-12T06:48:16.089Z,3.73
2017-06-12T06:50:43.670Z,4.00
2017-06-12T06:53:11.266Z,3.90
2017-06-12T06:55:38.865Z,3.70
2017-06-12T06:58:06.495Z,3.50
2017-06-12T07:00:34.067Z,3.40
2017-06-12T07:03:01.670Z,5.70
2017-06-12T07:05:29.266Z,4.13
2017-06-12T07:07:56.850Z,7.43
2017-06-12T07:10:24.448Z,4.10
2017-06-12T07:12:52.021Z,6.13
2017-06-12T07:15:20.386Z,11.17
2017-06-12T07:17:47.964Z,7.40
2017-06-12T07:20:15.539Z,5.13
2017-06-12T07:22:43.122Z,3.50
2017-06-12T07:25:10.696Z,4.17
2017-06-12T07:27:38.290Z,3.17
2017-06-12T07:30:05.876Z,3.10
2017-06-12T07:32:33.477Z,6.23
2017-06-12T07:35:01.070Z,5.13
2017-06-12T07:37:28.636Z,3.80
2017-06-12T07:39:56.229Z,4.00
2017-06-12T07:42:23.810Z,4.63
2017-06-12T07:44:51.386Z,3.47
2017-06-12T07:47:18.968Z,3.73
2017-06-12T07:49:47.347Z,3.83
2017-06-12T07:52:14.937Z,5.63
2017-06-12T07:54:42.543Z,5.07
2017-06-12T07:57:10.121Z,3.50
2017-06-12T07:59:37.696Z,3.80
2017-06-12T08:02:05.293Z,3.90
2017-06-12T08:04:32.866Z,3.80
2017-06-12T08:07:00.463Z,6.90
2017-06-12T08:09:28.067Z,7.73
2017-06-12T08:11:55.757Z,4.47
2017-06-12T08:14:23.351Z,5.20
2017-06-12T08:16:50.919Z,5.10
2017-06-12T08:19:18.540Z,4.33
2017-06-12T08:21:46.128Z,4.60
2017-06-12T08:24:13.777Z,3.57
2017-06-12T08:26:42.121Z,4.90
2017-06-12T08:29:09.701Z,3.50
2017-06-12T08:31:38.077Z,4.00
2017-06-12T08:34:05.646Z,5.60
2017-06-12T08:36:34.007Z,4.20
2017-06-12T08:39:01.594Z,7.00
2017-06-12T08:41:29.216Z,7.27
2017-06-12T08:43:56.841Z,14.47
2017-06-12T08:46:24.425Z,4.27
2017-06-12T08:48:52.022Z,6.40
2017-06-12T08:51:19.600Z,4.00
2017-06-12T08:53:47.196Z,9.67
2017-06-12T08:56:14.781Z,15.83
2017-06-12T08:58:42.370Z,14.33
2017-06-12T09:01:10.731Z,4.20
2017-06-12T09:03:39.058Z,8.77
2017-06-12T09:06:06.641Z,7.43
2017-06-12T09:08:34.229Z,7.43
2017-06-12T09:11:01.818Z,7.23
2017-06-12T09:13:29.393Z,5.40
2017-06-12T09:15:56.967Z,6.73
2017-06-12T09:18:24.561Z,5.90
2017-06-12T09:20:52.261Z,5.93
2017-06-12T09:23:19.844Z,5.23
2017-06-12T09:25:47.412Z,8.80
2017-06-12T09:28:15.006Z,8.23
2017-06-12T09:30:43.352Z,5.40
2017-06-12T09:33:10.928Z,12.40
2017-06-12T09:35:39.281Z,5.20
2017-06-12T09:38:06.858Z,6.07
2017-06-12T09:40:34.455Z,14.10
2017-06-12T09:43:02.048Z,15.90
2017-06-12T09:45:29.650Z,10.70
2017-06-12T09:47:57.991Z,15.13
2017-06-12T09:50:25.568Z,15.97
2017-06-12T09:52:53.155Z,6.63
2017-06-12T09:55:21.535Z,13.30
2017-06-12T09:57:49.895Z,9.87
2017-06-12T10:00:17.473Z,6.10
2017-06-12T10:02:45.232Z,5.70
2017-06-12T10:05:12.812Z,4.60
2017-06-12T10:07:40.385Z,4.77
2017-06-12T10:10:07.963Z,6.33
2017-06-12T10:12:35.543Z,6.07
2017-06-12T10:15:03.128Z,5.30
2017-06-12T10:17:31.471Z,7.50
2017-06-12T10:19:59.151Z,6.70
2017-06-12T10:22:27.493Z,6.17
2017-06-12T10:24:55.094Z,5.03
2017-06-12T10:27:23.432Z,4.87
2017-06-12T10:29:50.990Z,5.30
2017-06-12T10:32:18.577Z,4.53
2017-06-12T10:34:46.912Z,6.00
2017-06-12T10:37:14.537Z,6.80
2017-06-12T10:39:42.099Z,4.47
2017-06-12T10:42:09.660Z,3.70
2017-06-12T10:44:37.239Z,5.43
2017-06-12T10:47:04.818Z,4.83
2017-06-12T10:49:32.403Z,4.47
2017-06-12T10:51:59.977Z,7.37
2017-06-12T10:54:28.337Z,9.07
2017-06-12T10:56:55.948Z,4.43
2017-06-12T10:59:23.511Z,4.27
2017-06-12T11:01:51.092Z,5.67
2017-06-12T11:04:18.657Z,4.30
2017-06-12T11:06:46.254Z,4.10
2017-06-12T11:09:13.861Z,4.33
2017-06-12T11:11:41.622Z,6.47
2017-06-12T11:14:09.184Z,4.20
2017-06-12T11:16:36.773Z,11.20
2017-06-12T11:19:04.368Z,6.43
2017-06-12T11:21:31.944Z,5.80
2017-06-12T11:23:59.533Z,11.97
2017-06-12T11:26:27.109Z,8.00
2017-06-12T11:28:54.729Z,20.77
2017-06-12T11:31:22.305Z,6.40
2017-06-12T11:33:49.896Z,6.50
2017-06-12T11:36:18.257Z,7.93
2017-06-12T11:38:45.829Z,5.37
2017-06-12T11:41:13.422Z,7.30
2017-06-12T11:43:41.013Z,5.10
2017-06-12T11:46:08.771Z,12.70
2017-06-12T11:48:36.347Z,7.27
2017-06-12T11:51:03.918Z,5.97
2017-06-12T11:53:31.519Z,7.65
2017-06-12T11:55:59.137Z,4.17
2017-06-12T11:58:26.746Z,4.10
2017-06-12T12:00:54.331Z,6.93
2017-06-12T12:03:21.935Z,5.20
2017-06-12T12:05:49.515Z,4.60
2017-06-12T12:08:17.094Z,8.00
2017-06-12T12:10:44.676Z,6.27
2017-06-12T12:13:12.265Z,5.47
2017-06-12T12:15:39.847Z,6.90
2017-06-12T12:18:07.429Z,4.83
2017-06-12T12:20:35.022Z,9.17
2017-06-12T12:23:03.578Z,6.07
2017-06-12T12:25:31.190Z,5.43
2017-06-12T12:27:58.784Z,5.60
2017-06-12T12:30:26.351Z,6.53
2017-06-12T12:32:53.959Z,5.10
2017-06-12T12:35:21.517Z,7.10
2017-06-12T12:37:49.113Z,21.07
2017-06-12T12:40:16.701Z,12.40
2017-06-12T12:42:44.290Z,8.60
2017-06-12T12:45:11.900Z,13.30
2017-06-12T12:47:39.469Z,9.97
2017-06-12T12:50:07.063Z,11.80
2017-06-12T12:52:34.635Z,11.60
2017-06-12T12:55:02.531Z,10.73
2017-06-12T12:57:30.110Z,10.20
2017-06-12T12:59:57.693Z,10.00
2017-06-12T13:02:25.302Z,11.03
2017-06-12T13:04:52.902Z,10.83
2017-06-12T13:07:20.480Z,9.27
2017-06-12T13:09:48.080Z,8.53
2017-06-12T13:12:15.680Z,9.03
2017-06-12T13:14:43.248Z,9.30
2017-06-12T13:17:10.816Z,9.80
2017-06-12T13:19:38.416Z,10.03
2017-06-12T13:22:06.020Z,8.20
2017-06-12T13:24:33.599Z,8.23
2017-06-12T13:27:01.169Z,12.80
2017-06-12T13:29:28.758Z,6.50
2017-06-12T13:31:56.335Z,10.37
2017-06-12T13:34:23.897Z,8.30
2017-06-12T13:36:51.471Z,7.43
2017-06-12T13:39:19.048Z,8.77
2017-06-12T13:41:46.716Z,7.70
2017-06-12T13:44:14.308Z,7.83
2017-06-12T13:46:41.895Z,8.17
2017-06-12T13:49:09.495Z,8.33
2017-06-12T13:51:37.756Z,8.77
2017-06-12T13:54:06.139Z,7.97
2017-06-12T13:56:33.724Z,8.33
2017-06-12T13:59:02.109Z,8.70
2017-06-12T14:01:30.436Z,8.23
2017-06-12T14:03:58.007Z,8.17
2017-06-12T14:06:25.601Z,8.10
2017-06-12T14:08:53.935Z,8.30
2017-06-12T14:11:21.498Z,7.70
2017-06-12T14:13:49.074Z,7.70
2017-06-12T14:16:16.653Z,7.27
2017-06-12T14:18:44.990Z,9.10
2017-06-12T14:21:12.539Z,7.50
2017-06-12T14:23:40.116Z,7.97
2017-06-12T14:26:07.720Z,6.60
2017-06-12T14:28:35.322Z,6.83
2017-06-12T14:31:02.892Z,6.90
2017-06-12T14:33:30.464Z,7.20
2017-06-12T14:35:58.040Z,6.20
2017-06-12T14:38:26.388Z,7.20
2017-06-12T14:40:53.988Z,5.70
2017-06-12T14:43:21.574Z,6.63
2017-06-12T14:45:49.139Z,8.10
2017-06-12T14:48:16.724Z,6.70
2017-06-12T14:50:44.304Z,6.00
2017-06-12T14:53:12.669Z,8.40
2017-06-12T14:55:40.239Z,6.80
2017-06-12T14:58:07.846Z,7.10
2017-06-12T15:00:35.429Z,7.47
2017-06-12T15:03:03.007Z,6.17
2017-06-12T15:05:30.613Z,8.53
2017-06-12T15:07:58.185Z,5.83
2017-06-12T15:10:25.775Z,5.73
2017-06-12T15:12:53.363Z,6.07
2017-06-12T15:15:21.754Z,4.80
2017-06-12T15:17:50.132Z,5.43
2017-06-12T15:20:17.712Z,8.27
2017-06-12T15:22:45.332Z,6.20
2017-06-12T15:25:13.707Z,5.57
2017-06-12T15:27:42.055Z,6.60
2017-06-12T15:30:09.629Z,12.20
2017-06-12T15:32:37.233Z,8.50
2017-06-12T15:35:04.797Z,6.00
2017-06-12T15:37:32.356Z,7.90
2017-06-12T15:39:59.943Z,5.70
2017-06-12T15:42:27.507Z,5.40
2017-06-12T15:44:55.078Z,5.97
2017-06-12T15:47:22.646Z,5.00
2017-06-12T15:49:50.231Z,5.70
2017-06-12T15:52:17.825Z,6.60
2017-06-12T15:54:45.390Z,5.63
2017-06-12T15:57:12.986Z,6.00
2017-06-12T15:59:41.369Z,5.30
2017-06-12T16:02:09.734Z,5.37
2017-06-12T16:04:37.290Z,6.23
2017-06-12T16:07:04.881Z,5.30
2017-06-12T16:09:32.462Z,5.63
2017-06-12T16:12:00.033Z,6.13
2017-06-12T16:14:27.601Z,5.63
2017-06-12T16:16:55.184Z,5.53
2017-06-12T16:19:22.779Z,6.40
2017-06-12T16:21:50.340Z,5.73
2017-06-12T16:24:17.914Z,7.57
2017-06-12T16:26:45.505Z,5.73
2017-06-12T16:29:13.097Z,5.80
2017-06-12T16:31:41.478Z,7.20
2017-06-12T16:34:09.817Z,8.30
2017-06-12T16:36:37.413Z,6.00
2017-06-12T16:39:05.737Z,8.70
2017-06-12T16:41:33.304Z,5.93
2017-06-12T16:44:00.896Z,8.10
2017-06-12T16:46:28.612Z,5.97
2017-06-12T16:48:56.202Z,6.83
2017-06-12T16:51:23.784Z,6.40
2017-06-12T16:53:51.379Z,6.20
2017-06-12T16:56:18.964Z,6.13
2017-06-12T16:58:46.544Z,5.80
2017-06-12T17:01:14.136Z,5.97
2017-06-12T17:03:42.490Z,8.23
2017-06-12T17:06:10.105Z,7.30
2017-06-12T17:08:37.681Z,6.23
2017-06-12T17:11:05.330Z,6.00
2017-06-12T17:13:32.897Z,6.43
2017-06-12T17:16:00.543Z,6.70
2017-06-12T17:18:28.122Z,6.40
2017-06-12T17:20:55.738Z,7.97
2017-06-12T17:23:23.347Z,7.00
2017-06-12T17:25:50.959Z,7.70
2017-06-12T17:28:18.566Z,7.53
2017-06-12T17:30:46.167Z,7.50
2017-06-12T17:33:13.811Z,6.30
2017-06-12T17:35:41.439Z,6.80
2017-06-12T17:38:09.053Z,11.80
2017-06-12T17:40:37.072Z,6.57
2017-06-12T17:43:04.661Z,6.57
2017-06-12T17:45:33.031Z,6.00
2017-06-12T17:48:00.608Z,6.03
2017-06-12T17:50:28.948Z,7.97
2017-06-12T17:52:57.302Z,6.60
2017-06-12T17:55:24.900Z,6.10
2017-06-12T17:57:52.523Z,6.30
2017-06-12T18:00:20.118Z,6.17
2017-06-12T18:02:47.704Z,5.47
2017-06-12T18:05:15.270Z,7.90
2017-06-12T18:07:42.857Z,6.37
2017-06-12T18:10:10.426Z,5.57
2017-06-12T18:12:38.016Z,5.83
2017-06-12T18:15:05.581Z,5.10
2017-06-12T18:17:33.163Z,5.93
2017-06-12T18:20:00.726Z,5.63
2017-06-12T18:22:28.626Z,5.73
2017-06-12T18:24:56.211Z,5.53
2017-06-12T18:27:23.841Z,5.10
2017-06-12T18:29:51.425Z,6.70
2017-06-12T18:32:19.000Z,5.40
2017-06-12T18:34:46.586Z,6.40
2017-06-12T18:37:14.155Z,6.10
2017-06-12T18:39:42.092Z,5.20
2017-06-12T18:42:10.407Z,5.97
2017-06-12T18:44:37.999Z,5.10
2017-06-12T18:47:05.578Z,5.03
2017-06-12T18:49:33.142Z,5.70
2017-06-12T18:52:00.721Z,7.50
2017-06-12T18:54:28.281Z,4.97
2017-06-12T18:56:56.668Z,6.77
2017-06-12T18:59:24.247Z,7.00
2017-06-12T19:01:51.817Z,4.50
2017-06-12T19:04:19.396Z,4.27
2017-06-12T19:06:46.982Z,4.60
2017-06-12T19:09:15.341Z,3.87
2017-06-12T19:11:43.364Z,4.50
2017-06-12T19:14:10.956Z,7.60
2017-06-12T19:16:38.574Z,5.23
2017-06-12T19:19:06.143Z,5.07
2017-06-12T19:21:33.736Z,4.13
2017-06-12T19:24:01.314Z,6.70
2017-06-12T19:26:28.933Z,4.13
2017-06-12T19:28:56.507Z,2.97
2017-06-12T19:31:24.124Z,4.13
2017-06-12T19:33:51.743Z,3.27
2017-06-12T19:36:19.317Z,3.20
2017-06-12T19:38:47.660Z,14.37
2017-06-12T19:41:15.275Z,3.30
2017-06-12T19:43:42.906Z,3.13
2017-06-12T19:46:11.261Z,3.73
2017-06-12T19:48:38.899Z,3.93
2017-06-12T19:51:06.470Z,2.23
2017-06-12T19:53:34.035Z,5.00
2017-06-12T19:56:01.621Z,2.30
2017-06-12T19:58:29.188Z,5.50
2017-06-12T20:00:57.535Z,3.13
2017-06-12T20:03:25.140Z,3.20
2017-06-12T20:05:52.726Z,2.90
2017-06-12T20:08:20.302Z,3.03
2017-06-12T20:10:47.883Z,2.30
2017-06-12T20:13:15.464Z,5.43
2017-06-12T20:15:43.821Z,2.07
2017-06-12T20:18:11.405Z,3.20
2017-06-12T20:20:39.003Z,2.90
2017-06-12T20:23:06.586Z,3.80
2017-06-12T20:25:34.189Z,3.80
2017-06-12T20:28:02.534Z,4.10
2017-06-12T20:30:30.154Z,3.40
2017-06-12T20:32:57.729Z,2.37
2017-06-12T20:35:25.377Z,3.63
2017-06-12T20:37:52.951Z,2.63
2017-06-12T20:40:20.521Z,2.80
2017-06-12T20:42:48.133Z,3.60
2017-06-12T20:45:15.869Z,5.00
2017-06-12T20:47:44.242Z,3.93
2017-06-12T20:50:12.606Z,5.80
2017-06-12T20:52:40.240Z,5.07
2017-06-12T20:55:07.837Z,3.33
2017-06-12T20:57:36.178Z,2.27
2017-06-12T21:00:03.764Z,2.00
2017-06-12T21:02:31.339Z,3.20
2017-06-12T21:04:59.709Z,3.67
2017-06-12T21:07:27.291Z,3.60
2017-06-12T21:09:54.905Z,3.00
2017-06-12T21:12:22.510Z,2.30
2017-06-12T21:14:50.074Z,3.10
2017-06-12T21:17:17.662Z,1.97
2017-06-12T21:19:45.238Z,3.30
2017-06-12T21:22:12.834Z,1.90
2017-06-12T21:24:41.188Z,1.70
2017-06-12T21:27:08.784Z,3.00
2017-06-12T21:29:36.349Z,2.60
2017-06-12T21:32:03.936Z,3.20
2017-06-12T21:34:31.522Z,4.30
2017-06-12T21:36:59.092Z,3.50
2017-06-12T21:39:27.390Z,1.47
2017-06-12T21:41:55.722Z,2.10
2017-06-12T21:44:23.311Z,3.80
2017-06-12T21:46:51.650Z,4.00
2017-06-12T21:49:19.235Z,3.53
2017-06-12T21:51:46.820Z,4.37
2017-06-12T21:54:15.157Z,3.77
2017-06-12T21:56:42.749Z,4.13
2017-06-12T21:59:11.092Z,6.00
2017-06-12T22:01:38.814Z,3.93
2017-06-12T22:04:06.422Z,5.40
2017-06-12T22:06:33.987Z,4.70
2017-06-12T22:09:01.584Z,7.20
2017-06-12T22:11:29.172Z,5.07
2017-06-12T22:13:56.761Z,3.20
2017-06-12T22:16:24.322Z,3.80
2017-06-12T22:18:51.911Z,5.53
2017-06-12T22:21:19.490Z,5.20
2017-06-12T22:23:47.069Z,4.73
2017-06-12T22:26:14.651Z,3.97
2017-06-12T22:28:42.228Z,7.80
2017-06-12T22:31:10.571Z,4.07
2017-06-12T22:33:38.153Z,3.40
2017-06-12T22:36:05.797Z,2.90
2017-06-12T22:38:33.365Z,4.50
2017-06-12T22:41:00.939Z,2.10
2017-06-12T22:43:28.538Z,2.73
2017-06-12T22:45:56.133Z,3.43
2017-06-12T22:48:23.731Z,4.83
2017-06-12T22:50:52.095Z,3.93
2017-06-12T22:53:19.721Z,3.17
2017-06-12T22:55:47.299Z,4.27
2017-06-12T22:58:14.867Z,3.77
2017-06-12T23:00:42.486Z,2.20
2017-06-12T23:03:10.067Z,2.43
2017-06-12T23:05:37.673Z,3.73
2017-06-12T23:08:06.003Z,4.70
2017-06-12T23:10:33.701Z,5.07
2017-06-12T23:13:01.286Z,3.13
2017-06-12T23:15:28.854Z,3.00
2017-06-12T23:17:56.454Z,3.30
2017-06-12T23:20:24.037Z,3.97
2017-06-12T23:22:57.208Z,2.27
2017-06-12T23:25:24.794Z,3.57
2017-06-12T23:27:54.135Z,3.73
2017-06-12T23:30:21.723Z,4.47
2017-06-12T23:32:49.283Z,2.17
2017-06-12T23:35:16.879Z,2.43
2017-06-12T23:37:44.448Z,4.27
2017-06-12T23:40:12.031Z,3.10
2017-06-12T23:42:39.596Z,2.63
2017-06-12T23:45:07.142Z,2.73
2017-06-12T23:47:34.718Z,3.23
2017-06-12T23:50:02.281Z,4.93
2017-06-12T23:52:29.883Z,2.67
2017-06-12T23:54:58.226Z,3.50
2017-06-12T23:57:25.809Z,1.33
2017-06-12T23:59:54.148Z,1.53
